Terminal Aerodrome Forecast
Issued by NWS

Home | Current Version | Previous Version | Text Only | Print | Product List | Glossary On
Versions: 1 2 3 4 5 6 7 8 9 10 11 12 13 14 15 16 17 18 19
000
FTUS41 KBTV 212331
TAFRUT
TAF
KRUT 212331Z 2200/2224 34010KT P6SM VCSH SCT020 OVC040
      TEMPO 2200/2202 BKN020
     FM220200 34010KT P6SM BKN040
     FM221000 34005KT P6SM BKN200=

USA.gov is the U.S. government's official web portal to all federal, state and local government web resources and services.